createdAt,value
2017-10-30T00:00:50.814Z,0
2017-10-30T00:01:52.530Z,0
2017-10-30T00:02:54.277Z,0
2017-10-30T00:03:56.721Z,0
2017-10-30T00:04:58.434Z,0
2017-10-30T00:06:00.194Z,0
2017-10-30T00:07:01.907Z,0
2017-10-30T00:08:04.742Z,0
2017-10-30T00:09:06.400Z,0
2017-10-30T00:10:08.189Z,0
2017-10-30T00:11:09.940Z,0
2017-10-30T00:12:11.728Z,0
2017-10-30T00:13:13.472Z,0
2017-10-30T00:14:15.396Z,0
2017-10-30T00:15:17.138Z,0
2017-10-30T00:16:18.870Z,0
2017-10-30T00:17:20.560Z,0
2017-10-30T00:18:22.224Z,0
2017-10-30T00:19:23.893Z,0
2017-10-30T00:20:25.605Z,0
2017-10-30T00:21:27.564Z,0
2017-10-30T00:22:29.274Z,0
2017-10-30T00:23:30.939Z,0
2017-10-30T00:24:32.610Z,0
2017-10-30T00:25:34.351Z,0
2017-10-30T00:26:36.008Z,0
2017-10-30T00:27:37.685Z,0
2017-10-30T00:28:39.368Z,0
2017-10-30T00:29:41.327Z,0
2017-10-30T00:30:43.245Z,0
2017-10-30T00:31:44.952Z,0
2017-10-30T00:32:46.779Z,0
2017-10-30T00:33:48.484Z,0
2017-10-30T00:34:50.208Z,0
2017-10-30T00:35:51.986Z,0
2017-10-30T00:36:53.714Z,0
2017-10-30T00:37:57.310Z,0
2017-10-30T00:38:59.046Z,0
2017-10-30T00:40:00.767Z,0
2017-10-30T00:41:02.479Z,0
2017-10-30T00:42:04.208Z,0
2017-10-30T00:43:05.909Z,0
2017-10-30T00:44:07.640Z,0
2017-10-30T00:45:09.377Z,0
2017-10-30T00:46:11.091Z,0
2017-10-30T00:47:12.815Z,0
2017-10-30T00:48:14.555Z,0
2017-10-30T00:49:16.277Z,0
2017-10-30T00:50:17.994Z,0
2017-10-30T00:51:19.699Z,0
2017-10-30T00:52:21.501Z,0
2017-10-30T00:53:23.228Z,0
2017-10-30T00:54:24.930Z,0
2017-10-30T00:55:26.661Z,0
2017-10-30T00:56:28.346Z,0
2017-10-30T00:57:30.095Z,0
2017-10-30T00:58:31.785Z,0
2017-10-30T00:59:33.537Z,0
2017-10-30T01:00:35.250Z,0
2017-10-30T01:01:37.037Z,0
2017-10-30T01:02:38.802Z,0
2017-10-30T01:03:40.545Z,0
2017-10-30T01:04:42.295Z,0
2017-10-30T01:05:43.995Z,0
2017-10-30T01:06:45.732Z,0
2017-10-30T01:07:47.482Z,0
2017-10-30T01:08:49.263Z,0
2017-10-30T01:09:51.032Z,0
2017-10-30T01:10:52.795Z,0
2017-10-30T01:11:54.547Z,0
2017-10-30T01:12:56.234Z,0
2017-10-30T01:13:57.914Z,0
2017-10-30T01:14:59.599Z,0
2017-10-30T01:16:01.289Z,0
2017-10-30T01:17:02.986Z,0
2017-10-30T01:18:04.716Z,0
2017-10-30T01:19:06.428Z,0
2017-10-30T01:20:08.137Z,0
2017-10-30T01:21:09.889Z,0
2017-10-30T01:22:11.722Z,0
2017-10-30T01:23:13.468Z,0
2017-10-30T01:24:15.231Z,0
2017-10-30T01:25:17.021Z,0
2017-10-30T01:26:18.771Z,0
2017-10-30T01:27:20.554Z,0
2017-10-30T01:28:22.374Z,0
2017-10-30T01:29:24.077Z,0
2017-10-30T01:30:25.826Z,0
2017-10-30T01:31:27.580Z,0
2017-10-30T01:32:29.326Z,0
2017-10-30T01:33:31.063Z,0
2017-10-30T01:34:32.773Z,0
2017-10-30T01:35:34.515Z,0
2017-10-30T01:36:36.283Z,0
2017-10-30T01:37:38.051Z,0
2017-10-30T01:38:39.762Z,0
2017-10-30T01:39:41.464Z,0
2017-10-30T01:40:43.208Z,0
2017-10-30T01:41:44.954Z,0
2017-10-30T01:42:46.699Z,0
2017-10-30T01:43:48.392Z,0
2017-10-30T01:44:50.082Z,0
2017-10-30T01:45:51.749Z,0
2017-10-30T01:46:53.449Z,0
2017-10-30T01:47:55.095Z,0
2017-10-30T01:48:56.765Z,0
2017-10-30T01:49:58.418Z,0
2017-10-30T01:51:00.081Z,0
2017-10-30T01:52:01.747Z,0
2017-10-30T01:53:03.470Z,0
2017-10-30T01:54:05.124Z,0
2017-10-30T01:55:06.796Z,0
2017-10-30T01:56:08.450Z,0
2017-10-30T01:57:10.100Z,0
2017-10-30T01:58:11.775Z,0
2017-10-30T01:59:13.422Z,0
2017-10-30T02:00:15.078Z,0
2017-10-30T02:01:16.730Z,0
2017-10-30T02:02:18.388Z,0
2017-10-30T02:03:20.040Z,0
2017-10-30T02:04:21.721Z,0
2017-10-30T02:05:23.545Z,0
2017-10-30T02:06:25.227Z,0
2017-10-30T02:07:27.750Z,0
2017-10-30T02:08:29.408Z,0
2017-10-30T02:09:31.082Z,0
2017-10-30T02:10:32.738Z,0
2017-10-30T02:11:34.383Z,0
2017-10-30T02:12:36.046Z,0
2017-10-30T02:13:37.704Z,0
2017-10-30T02:14:39.361Z,0
2017-10-30T02:15:41.012Z,0
2017-10-30T02:16:42.670Z,0
2017-10-30T02:17:44.321Z,0
2017-10-30T02:18:45.978Z,0
2017-10-30T02:19:47.624Z,0
2017-10-30T02:20:49.278Z,0
2017-10-30T02:21:51.035Z,0
2017-10-30T02:22:52.704Z,0
2017-10-30T02:23:54.352Z,0
2017-10-30T02:24:56.000Z,0
2017-10-30T02:25:57.656Z,0
2017-10-30T02:26:59.311Z,0
2017-10-30T02:28:00.963Z,0
2017-10-30T02:29:02.673Z,0
2017-10-30T02:30:04.335Z,0
2017-10-30T02:31:05.983Z,0
2017-10-30T02:32:07.640Z,0
2017-10-30T02:33:09.297Z,0
2017-10-30T02:34:10.948Z,0
2017-10-30T02:35:12.601Z,0
2017-10-30T02:36:14.285Z,0
2017-10-30T02:37:15.939Z,0
2017-10-30T02:38:17.600Z,0
2017-10-30T02:39:19.249Z,0
2017-10-30T02:40:20.899Z,0
2017-10-30T02:41:22.569Z,0
2017-10-30T02:42:24.234Z,0
2017-10-30T02:43:25.889Z,0
2017-10-30T02:44:27.551Z,0
2017-10-30T02:45:29.203Z,0
2017-10-30T02:46:30.850Z,0
2017-10-30T02:47:32.509Z,0
2017-10-30T02:48:34.186Z,0
2017-10-30T02:49:35.845Z,0
2017-10-30T02:50:37.495Z,0
2017-10-30T02:51:39.155Z,0
2017-10-30T02:52:40.823Z,0
2017-10-30T02:53:42.564Z,0
2017-10-30T02:54:44.222Z,0
2017-10-30T02:55:45.888Z,0
2017-10-30T03:01:56.541Z,0
2017-10-30T03:02:58.197Z,0
2017-10-30T03:03:59.847Z,0
2017-10-30T03:05:01.500Z,0
2017-10-30T03:06:03.141Z,0
2017-10-30T03:07:04.802Z,0
2017-10-30T03:08:06.459Z,0
2017-10-30T03:09:08.109Z,0
2017-10-30T03:10:09.772Z,0
2017-10-30T03:11:11.426Z,0
2017-10-30T03:12:13.070Z,0
2017-10-30T03:13:14.722Z,0
2017-10-30T03:14:16.379Z,0
2017-10-30T03:15:18.045Z,0
2017-10-30T03:16:19.692Z,0
2017-10-30T03:17:21.337Z,0
2017-10-30T03:18:22.988Z,0
2017-10-30T03:19:24.648Z,0
2017-10-30T03:20:26.305Z,0
2017-10-30T03:21:27.957Z,0
2017-10-30T03:22:29.605Z,0
2017-10-30T03:23:31.270Z,0
2017-10-30T03:24:32.914Z,0
2017-10-30T03:25:34.569Z,0
2017-10-30T03:26:36.218Z,0
2017-10-30T03:27:37.869Z,0
2017-10-30T03:28:39.520Z,0
2017-10-30T03:29:41.169Z,0
2017-10-30T03:30:42.879Z,0
2017-10-30T03:31:44.535Z,0
2017-10-30T03:32:46.192Z,0
2017-10-30T03:33:47.856Z,0
2017-10-30T03:34:49.605Z,0
2017-10-30T03:35:51.270Z,0
2017-10-30T03:36:52.947Z,0
2017-10-30T03:37:54.606Z,0
2017-10-30T03:38:56.262Z,0
2017-10-30T03:39:57.927Z,0
2017-10-30T03:40:59.577Z,0
2017-10-30T03:42:01.223Z,0
2017-10-30T03:43:02.869Z,0
2017-10-30T03:44:04.523Z,0
2017-10-30T03:45:06.180Z,0
2017-10-30T03:46:07.833Z,0
2017-10-30T03:47:09.524Z,0
2017-10-30T03:48:11.172Z,0
2017-10-30T03:49:12.820Z,0
2017-10-30T03:50:14.494Z,0
2017-10-30T03:51:16.154Z,0
2017-10-30T03:52:17.813Z,0
2017-10-30T03:53:19.464Z,0
2017-10-30T03:54:21.131Z,0
2017-10-30T03:55:22.788Z,0
2017-10-30T03:56:24.450Z,0
2017-10-30T03:57:26.126Z,0
2017-10-30T03:58:27.771Z,0
2017-10-30T03:59:29.465Z,0
2017-10-30T04:00:31.132Z,0
2017-10-30T04:01:32.774Z,0
2017-10-30T04:02:34.431Z,0
2017-10-30T04:03:36.082Z,0
2017-10-30T04:04:37.762Z,0
2017-10-30T04:05:39.435Z,0
2017-10-30T04:06:41.082Z,0
2017-10-30T04:07:42.737Z,0
2017-10-30T04:08:44.394Z,0
2017-10-30T04:09:46.040Z,0
2017-10-30T04:10:47.684Z,0
2017-10-30T04:11:49.344Z,0
2017-10-30T04:12:51.006Z,0
2017-10-30T04:13:52.659Z,0
2017-10-30T04:14:54.307Z,0
2017-10-30T04:15:55.964Z,0
2017-10-30T04:16:57.625Z,0
2017-10-30T04:17:59.269Z,0
2017-10-30T04:19:00.927Z,0
2017-10-30T04:20:02.580Z,0
2017-10-30T04:21:04.242Z,0
2017-10-30T04:22:05.890Z,0
2017-10-30T04:23:07.542Z,0
2017-10-30T04:24:09.192Z,0
2017-10-30T04:25:10.841Z,0
2017-10-30T04:26:12.517Z,0
2017-10-30T04:27:14.170Z,0
2017-10-30T04:28:15.849Z,0
2017-10-30T04:29:17.496Z,0
2017-10-30T04:30:19.143Z,0
2017-10-30T04:31:20.812Z,0
2017-10-30T04:32:22.448Z,0
2017-10-30T04:33:24.109Z,0
2017-10-30T04:34:25.773Z,0
2017-10-30T04:35:27.422Z,0
2017-10-30T04:36:29.084Z,0
2017-10-30T04:37:30.911Z,0
2017-10-30T04:38:32.562Z,0
2017-10-30T04:39:34.224Z,0
2017-10-30T04:40:35.874Z,0
2017-10-30T04:41:37.529Z,0
2017-10-30T04:42:39.226Z,0
2017-10-30T04:43:40.868Z,0
2017-10-30T04:44:42.501Z,0
2017-10-30T04:45:44.154Z,0
2017-10-30T04:46:45.881Z,0
2017-10-30T04:47:47.524Z,0
2017-10-30T04:48:49.174Z,0
2017-10-30T04:49:50.830Z,0
2017-10-30T04:50:52.475Z,0
2017-10-30T04:51:54.134Z,0
2017-10-30T04:52:55.791Z,0
2017-10-30T04:53:57.433Z,0
2017-10-30T04:54:59.106Z,0
2017-10-30T04:56:00.756Z,0
2017-10-30T04:57:02.412Z,0
2017-10-30T04:58:04.061Z,0
2017-10-30T04:59:05.717Z,0
2017-10-30T05:00:07.374Z,0
2017-10-30T05:01:09.024Z,0
2017-10-30T05:02:10.679Z,0
2017-10-30T05:03:12.329Z,0
2017-10-30T05:04:13.973Z,0
2017-10-30T05:05:15.631Z,0
2017-10-30T05:06:17.280Z,0
2017-10-30T05:07:19.020Z,0
2017-10-30T05:08:20.667Z,0
2017-10-30T05:09:22.317Z,0
2017-10-30T05:10:24.010Z,0
2017-10-30T05:11:25.626Z,0
2017-10-30T05:12:27.278Z,0
2017-10-30T05:13:28.924Z,0
2017-10-30T05:14:30.601Z,0
2017-10-30T05:15:32.259Z,0
2017-10-30T05:16:33.911Z,0
2017-10-30T05:17:35.570Z,0
2017-10-30T05:18:37.224Z,0
2017-10-30T05:19:38.866Z,0
2017-10-30T05:20:40.512Z,0
2017-10-30T05:21:42.183Z,0
2017-10-30T05:22:43.832Z,0
2017-10-30T05:23:45.481Z,0
2017-10-30T05:24:47.140Z,0
2017-10-30T05:25:48.790Z,0
2017-10-30T05:26:50.445Z,0
2017-10-30T05:27:52.126Z,0
2017-10-30T05:28:53.773Z,0
2017-10-30T05:29:55.430Z,0
2017-10-30T05:30:57.084Z,0
2017-10-30T05:31:58.747Z,0
2017-10-30T05:33:00.536Z,0
2017-10-30T05:34:02.182Z,0
2017-10-30T05:35:03.834Z,0
2017-10-30T05:36:05.489Z,0
2017-10-30T05:37:07.139Z,0
2017-10-30T05:38:08.787Z,0
2017-10-30T05:39:10.447Z,0
2017-10-30T05:40:12.113Z,0
2017-10-30T05:41:13.752Z,0
2017-10-30T05:42:15.400Z,0
2017-10-30T05:43:17.053Z,4
2017-10-30T05:44:18.696Z,4
2017-10-30T05:45:20.345Z,0
2017-10-30T05:46:22.006Z,4
2017-10-30T05:47:23.652Z,4
2017-10-30T05:48:25.296Z,0
2017-10-30T05:49:26.957Z,4
2017-10-30T05:50:28.609Z,4
2017-10-30T05:51:30.286Z,4
2017-10-30T05:52:31.938Z,8
2017-10-30T05:53:33.579Z,8
2017-10-30T05:54:35.238Z,12
2017-10-30T05:55:36.892Z,16
2017-10-30T05:56:38.554Z,24
2017-10-30T05:57:40.202Z,24
2017-10-30T05:58:41.878Z,24
2017-10-30T05:59:43.538Z,24
2017-10-30T06:00:45.198Z,24
2017-10-30T06:01:46.857Z,20
2017-10-30T06:02:48.508Z,20
2017-10-30T06:03:50.167Z,20
2017-10-30T06:04:51.823Z,28
2017-10-30T06:05:53.478Z,36
2017-10-30T06:06:55.129Z,44
2017-10-30T06:07:56.785Z,60
2017-10-30T06:08:58.434Z,60
2017-10-30T06:10:00.097Z,60
2017-10-30T06:11:01.836Z,56
2017-10-30T06:12:03.504Z,60
2017-10-30T06:13:05.147Z,84
2017-10-30T06:14:06.800Z,108
2017-10-30T06:15:08.481Z,148
2017-10-30T06:16:10.136Z,160
2017-10-30T06:17:11.788Z,164
2017-10-30T06:18:13.457Z,160
2017-10-30T06:19:15.122Z,180
2017-10-30T06:20:16.780Z,240
2017-10-30T06:21:18.427Z,268
2017-10-30T06:22:20.091Z,304
2017-10-30T06:23:21.759Z,308
2017-10-30T06:24:23.419Z,316
2017-10-30T06:25:25.077Z,340
2017-10-30T06:26:26.741Z,416
2017-10-30T06:27:28.405Z,400
2017-10-30T06:28:30.062Z,376
2017-10-30T06:29:31.717Z,340
2017-10-30T06:30:33.381Z,328
2017-10-30T06:31:35.032Z,336
2017-10-30T06:32:36.683Z,396
2017-10-30T06:33:38.340Z,452
2017-10-30T06:34:39.991Z,524
2017-10-30T06:35:41.653Z,532
2017-10-30T06:36:43.324Z,552
2017-10-30T06:37:44.999Z,660
2017-10-30T06:38:46.666Z,788
2017-10-30T06:39:48.314Z,892
2017-10-30T06:40:49.965Z,976
2017-10-30T06:41:51.616Z,892
2017-10-30T06:42:53.275Z,784
2017-10-30T06:43:54.936Z,788
2017-10-30T06:44:56.594Z,748
2017-10-30T06:45:58.255Z,972
2017-10-30T06:46:59.915Z,1252
2017-10-30T06:48:01.567Z,1228
2017-10-30T06:49:03.217Z,1420
2017-10-30T06:50:04.877Z,1668
2017-10-30T06:51:06.566Z,1692
2017-10-30T06:52:08.208Z,1620
2017-10-30T06:53:09.858Z,1424
2017-10-30T06:54:11.516Z,1420
2017-10-30T06:55:13.184Z,1436
2017-10-30T07:01:24.921Z,1796
2017-10-30T07:02:26.570Z,1788
2017-10-30T07:03:28.219Z,1452
2017-10-30T07:04:29.875Z,1384
2017-10-30T07:05:31.529Z,1356
2017-10-30T07:06:33.186Z,1156
2017-10-30T07:07:34.855Z,1232
2017-10-30T07:08:36.505Z,1516
2017-10-30T07:09:38.267Z,1532
2017-10-30T07:10:39.911Z,1508
2017-10-30T07:11:41.565Z,1616
2017-10-30T07:12:43.226Z,1560
2017-10-30T07:13:44.895Z,1464
2017-10-30T07:14:46.555Z,2024
2017-10-30T07:15:48.214Z,2944
2017-10-30T07:16:49.860Z,4076
2017-10-30T07:17:51.511Z,4144
2017-10-30T07:18:53.164Z,4428
2017-10-30T07:19:54.825Z,4932
2017-10-30T07:20:56.507Z,5136
2017-10-30T07:21:58.156Z,5392
2017-10-30T07:22:59.815Z,6676
2017-10-30T07:24:01.467Z,5988
2017-10-30T07:25:03.153Z,4692
2017-10-30T07:26:04.810Z,4752
2017-10-30T07:27:06.479Z,4548
2017-10-30T07:28:08.207Z,3748
2017-10-30T07:29:09.863Z,4344
2017-10-30T07:30:11.515Z,5440
2017-10-30T07:31:13.175Z,5428
2017-10-30T07:32:14.841Z,5144
2017-10-30T07:33:16.491Z,4992
2017-10-30T07:34:18.149Z,4084
2017-10-30T07:35:20.829Z,3148
2017-10-30T07:36:22.489Z,2632
2017-10-30T07:37:24.145Z,2384
2017-10-30T07:38:25.824Z,1908
2017-10-30T07:39:27.477Z,1784
2017-10-30T07:40:29.137Z,1668
2017-10-30T07:41:30.881Z,1640
2017-10-30T07:42:32.533Z,1992
2017-10-30T07:43:34.296Z,2508
2017-10-30T07:44:36.045Z,2696
2017-10-30T07:45:37.687Z,2932
2017-10-30T07:46:39.457Z,3272
2017-10-30T07:47:41.141Z,3884
2017-10-30T07:48:42.921Z,4064
2017-10-30T07:49:44.586Z,4284
2017-10-30T07:50:46.346Z,4828
2017-10-30T07:51:48.028Z,5344
2017-10-30T07:52:49.736Z,5188
2017-10-30T07:53:51.426Z,5604
2017-10-30T07:54:53.076Z,5884
2017-10-30T07:55:54.735Z,7060
2017-10-30T07:56:56.388Z,8368
2017-10-30T07:57:58.048Z,8088
2017-10-30T07:58:59.900Z,8128
2017-10-30T08:00:01.574Z,9948
2017-10-30T08:01:03.276Z,13660
2017-10-30T08:02:04.942Z,12532
2017-10-30T08:03:06.597Z,7140
2017-10-30T08:04:08.251Z,6420
2017-10-30T08:05:09.922Z,5532
2017-10-30T08:06:11.581Z,4932
2017-10-30T08:07:13.245Z,5000
2017-10-30T08:08:14.896Z,4732
2017-10-30T08:09:16.552Z,6104
2017-10-30T08:10:18.375Z,6300
2017-10-30T08:11:20.047Z,5384
2017-10-30T08:12:21.732Z,6948
2017-10-30T08:13:23.400Z,8776
2017-10-30T08:14:25.058Z,8924
2017-10-30T08:15:26.716Z,11632
2017-10-30T08:16:28.381Z,14324
2017-10-30T08:17:30.037Z,15104
2017-10-30T08:18:31.718Z,14792
2017-10-30T08:19:33.409Z,18720
2017-10-30T08:20:35.063Z,19360
2017-10-30T08:21:36.741Z,19712
2017-10-30T08:22:38.404Z,19488
2017-10-30T08:23:41.481Z,19904
2017-10-30T08:24:43.144Z,23328
2017-10-30T08:25:46.965Z,23744
2017-10-30T08:26:49.353Z,19392
2017-10-30T08:27:51.037Z,15416
2017-10-30T08:28:52.705Z,19392
2017-10-30T08:29:54.377Z,24480
2017-10-30T08:30:56.109Z,29952
2017-10-30T08:31:57.751Z,21600
2017-10-30T08:32:59.474Z,17280
2017-10-30T08:34:01.144Z,19392
2017-10-30T08:35:02.803Z,20064
2017-10-30T08:36:04.464Z,16016
2017-10-30T08:37:06.185Z,13172
2017-10-30T08:38:07.883Z,12076
2017-10-30T08:39:09.564Z,15256
2017-10-30T08:40:11.226Z,18400
2017-10-30T08:41:12.895Z,20864
2017-10-30T08:42:14.561Z,20736
2017-10-30T08:43:16.219Z,21792
2017-10-30T08:44:17.896Z,19904
2017-10-30T08:45:19.620Z,17152
2017-10-30T08:46:21.281Z,13656
2017-10-30T08:47:22.956Z,14680
2017-10-30T08:48:24.612Z,16916
2017-10-30T08:49:26.279Z,17984
2017-10-30T08:50:27.947Z,14132
2017-10-30T08:51:29.607Z,13600
2017-10-30T08:52:31.274Z,12184
2017-10-30T08:53:32.940Z,13676
2017-10-30T08:54:34.607Z,17664
2017-10-30T08:55:36.381Z,20832
2017-10-30T08:56:38.028Z,19328
2017-10-30T08:57:39.687Z,15536
2017-10-30T08:58:41.823Z,12348
2017-10-30T08:59:43.489Z,11236
2017-10-30T09:00:45.173Z,12364
2017-10-30T09:01:46.823Z,16204
2017-10-30T09:02:48.497Z,16460
2017-10-30T09:03:50.188Z,17312
2017-10-30T09:04:51.871Z,18720
2017-10-30T09:05:53.525Z,15932
2017-10-30T09:06:55.199Z,13724
2017-10-30T09:07:56.855Z,15184
2017-10-30T09:08:58.518Z,16056
2017-10-30T09:10:00.178Z,12008
2017-10-30T09:11:01.844Z,8340
2017-10-30T09:12:03.512Z,7068
2017-10-30T09:13:05.170Z,8016
2017-10-30T09:14:06.832Z,9196
2017-10-30T09:15:08.490Z,7676
2017-10-30T09:16:10.167Z,7336
2017-10-30T09:17:11.836Z,11156
2017-10-30T09:18:13.507Z,14920
2017-10-30T09:19:15.177Z,12988
2017-10-30T09:20:16.903Z,12512
2017-10-30T09:21:18.582Z,13988
2017-10-30T09:22:20.255Z,14720
2017-10-30T09:23:21.922Z,12112
2017-10-30T09:24:23.680Z,8044
2017-10-30T09:25:25.367Z,7008
2017-10-30T09:26:27.003Z,7960
2017-10-30T09:27:28.667Z,8912
2017-10-30T09:28:30.330Z,9760
2017-10-30T09:29:31.997Z,8868
2017-10-30T09:30:33.657Z,9488
2017-10-30T09:31:35.318Z,12912
2017-10-30T09:32:37.100Z,15836
2017-10-30T09:33:38.761Z,13484
2017-10-30T09:34:40.437Z,11676
2017-10-30T09:35:42.102Z,12284
2017-10-30T09:36:43.761Z,12440
2017-10-30T09:37:45.437Z,12420
2017-10-30T09:38:47.103Z,15488
2017-10-30T09:39:48.768Z,17888
2017-10-30T09:40:50.464Z,17888
2017-10-30T09:41:52.115Z,12124
2017-10-30T09:42:53.778Z,10468
2017-10-30T09:43:55.454Z,11084
2017-10-30T09:44:57.178Z,9080
2017-10-30T09:45:58.846Z,6568
2017-10-30T09:47:00.530Z,7348
2017-10-30T09:48:02.259Z,8520
2017-10-30T09:49:03.937Z,10204
2017-10-30T09:50:05.729Z,10964
2017-10-30T09:51:07.402Z,12120
2017-10-30T09:52:09.078Z,13900
2017-10-30T09:53:10.755Z,17824
2017-10-30T09:54:12.506Z,21408
2017-10-30T09:55:14.166Z,19648
2017-10-30T09:56:15.828Z,14756
2017-10-30T09:57:17.536Z,13908
2017-10-30T09:58:19.191Z,15712
2017-10-30T09:59:20.937Z,16332
2017-10-30T10:00:22.607Z,13076
2017-10-30T10:01:24.268Z,10192
2017-10-30T10:02:25.933Z,8332
2017-10-30T10:03:27.592Z,8376
2017-10-30T10:04:29.256Z,8908
2017-10-30T10:05:30.913Z,8760
2017-10-30T10:06:32.625Z,8868
2017-10-30T10:07:34.290Z,9276
2017-10-30T10:08:35.962Z,10172
2017-10-30T10:09:37.636Z,10724
2017-10-30T10:10:39.357Z,11368
2017-10-30T10:11:41.105Z,11156
2017-10-30T10:12:42.790Z,11068
2017-10-30T10:13:44.453Z,13492
2017-10-30T10:14:46.112Z,16180
2017-10-30T10:15:47.771Z,15216
2017-10-30T10:16:49.443Z,14220
2017-10-30T10:17:51.107Z,12428
2017-10-30T10:18:52.766Z,10320
2017-10-30T10:19:54.429Z,9704
2017-10-30T10:20:56.104Z,9704
2017-10-30T10:21:57.783Z,9888
2017-10-30T10:22:59.466Z,11496
2017-10-30T10:24:01.103Z,15172
2017-10-30T10:25:02.786Z,16828
2017-10-30T10:26:04.448Z,15964
2017-10-30T10:27:06.106Z,14340
2017-10-30T10:28:07.810Z,13908
2017-10-30T10:29:09.713Z,15684
2017-10-30T10:30:11.387Z,18016
2017-10-30T10:31:13.046Z,18624
2017-10-30T10:32:14.713Z,17984
2017-10-30T10:33:16.385Z,18464
2017-10-30T10:34:18.140Z,21344
2017-10-30T10:35:19.885Z,22560
2017-10-30T10:36:21.549Z,23840
2017-10-30T10:37:23.231Z,18912
2017-10-30T10:38:25.475Z,16936
2017-10-30T10:39:27.152Z,15856
2017-10-30T10:40:28.812Z,14900
2017-10-30T10:41:30.481Z,16136
2017-10-30T10:42:32.909Z,18432
2017-10-30T10:43:34.588Z,18496
2017-10-30T10:44:36.249Z,19136
2017-10-30T10:45:38.194Z,18240
2017-10-30T10:46:39.847Z,18912
2017-10-30T10:47:41.696Z,20704
2017-10-30T10:48:43.368Z,19168
2017-10-30T10:49:45.045Z,15248
2017-10-30T10:50:46.718Z,11236
2017-10-30T10:51:48.391Z,7808
2017-10-30T10:52:50.049Z,7232
2017-10-30T10:53:51.720Z,7988
2017-10-30T10:54:53.514Z,8808
2017-10-30T11:01:09.274Z,19776
2017-10-30T11:02:10.934Z,21152
2017-10-30T11:04:04.234Z,25440
2017-10-30T11:05:05.892Z,25600
2017-10-30T11:06:08.200Z,24928
2017-10-30T11:07:09.868Z,22720
2017-10-30T11:08:11.533Z,19744
2017-10-30T11:09:13.193Z,16272
2017-10-30T11:10:14.865Z,13744
2017-10-30T11:11:16.986Z,11780
2017-10-30T11:12:18.654Z,10376
2017-10-30T11:13:20.331Z,10932
2017-10-30T11:14:22.000Z,13860
2017-10-30T11:15:23.671Z,17760
2017-10-30T11:16:25.705Z,19520
2017-10-30T11:17:27.366Z,19552
2017-10-30T11:18:29.031Z,24096
2017-10-30T11:19:30.699Z,23872
2017-10-30T11:20:32.353Z,19424
2017-10-30T11:21:34.010Z,15232
2017-10-30T11:22:35.787Z,13584
2017-10-30T11:23:37.455Z,11916
2017-10-30T11:24:39.449Z,11100
2017-10-30T11:25:41.119Z,9908
2017-10-30T11:26:43.045Z,9420
2017-10-30T11:27:44.711Z,9352
2017-10-30T11:28:46.376Z,8572
2017-10-30T11:29:48.034Z,7492
2017-10-30T11:30:50.138Z,6440
2017-10-30T11:31:51.813Z,5724
2017-10-30T11:32:53.493Z,5928
2017-10-30T11:33:55.176Z,6716
2017-10-30T11:34:56.848Z,8516
2017-10-30T11:35:58.522Z,11792
2017-10-30T11:37:00.261Z,15308
2017-10-30T11:38:05.218Z,15872
2017-10-30T11:39:11.838Z,14788
2017-10-30T11:40:19.514Z,11696
2017-10-30T11:41:25.339Z,8720
2017-10-30T11:42:31.778Z,7824
2017-10-30T11:43:37.275Z,8172
2017-10-30T11:44:44.414Z,10888
2017-10-30T11:45:50.854Z,13380
2017-10-30T11:46:57.764Z,12324
2017-10-30T11:48:04.351Z,10856
2017-10-30T11:49:10.385Z,9152
2017-10-30T11:50:15.220Z,8196
2017-10-30T11:51:20.454Z,8344
2017-10-30T11:52:26.500Z,8224
2017-10-30T11:53:30.515Z,9132
2017-10-30T11:54:34.886Z,10348
2017-10-30T11:55:36.476Z,11116
2017-10-30T11:56:43.057Z,13192
2017-10-30T11:57:49.492Z,19008
2017-10-30T11:58:54.828Z,27872
2017-10-30T11:59:56.432Z,22304
2017-10-30T12:00:58.155Z,23808
2017-10-30T12:02:00.631Z,40480
2017-10-30T12:03:03.053Z,37824
2017-10-30T12:04:05.069Z,50368
2017-10-30T12:05:08.036Z,34688
2017-10-30T12:06:10.873Z,32160
2017-10-30T12:07:14.475Z,30176
2017-10-30T12:08:17.164Z,28000
2017-10-30T12:09:19.793Z,25984
2017-10-30T12:10:21.767Z,23968
2017-10-30T12:11:24.302Z,21760
2017-10-30T12:12:26.368Z,22016
2017-10-30T12:13:29.105Z,22624
2017-10-30T12:14:31.425Z,23232
2017-10-30T12:15:34.219Z,23072
2017-10-30T12:16:38.300Z,20864
2017-10-30T12:17:40.968Z,16536
2017-10-30T12:18:43.610Z,12760
2017-10-30T12:19:46.647Z,10368
2017-10-30T12:20:49.502Z,8784
2017-10-30T12:21:51.429Z,7600
2017-10-30T12:22:53.805Z,6944
2017-10-30T12:23:59.053Z,7024
2017-10-30T12:25:01.805Z,7240
2017-10-30T12:26:04.810Z,6792
2017-10-30T12:27:09.633Z,5452
2017-10-30T12:28:12.907Z,4280
2017-10-30T12:29:25.573Z,4316
2017-10-30T12:30:27.474Z,4484
2017-10-30T12:31:30.038Z,4848
2017-10-30T12:32:34.966Z,5948
2017-10-30T12:33:36.970Z,7552
2017-10-30T12:34:39.180Z,8948
2017-10-30T12:35:42.005Z,10432
2017-10-30T12:36:43.865Z,11612
2017-10-30T12:37:46.991Z,11980
2017-10-30T12:38:50.027Z,12548
2017-10-30T12:39:53.472Z,13852
2017-10-30T12:40:55.303Z,15964
2017-10-30T12:41:57.436Z,16036
2017-10-30T12:43:01.153Z,16644
2017-10-30T12:44:04.303Z,16504
2017-10-30T12:45:06.181Z,15308
2017-10-30T12:46:08.164Z,13908
2017-10-30T12:47:10.921Z,11900
2017-10-30T12:48:12.735Z,10236
2017-10-30T12:49:14.501Z,9624
2017-10-30T12:50:16.346Z,9692
2017-10-30T12:51:18.140Z,9916
2017-10-30T12:52:19.882Z,8992
2017-10-30T12:53:21.652Z,7672
2017-10-30T12:54:23.413Z,6496
2017-10-30T12:55:25.127Z,5888
2017-10-30T12:56:26.921Z,6104
2017-10-30T12:57:28.780Z,6480
2017-10-30T12:58:30.509Z,6116
2017-10-30T12:59:32.258Z,6412
2017-10-30T13:00:34.022Z,7016
2017-10-30T13:01:35.792Z,7032
2017-10-30T13:02:37.555Z,7084
2017-10-30T13:03:39.398Z,6252
2017-10-30T13:04:41.189Z,4836
2017-10-30T13:05:42.925Z,4172
2017-10-30T13:06:44.712Z,4172
2017-10-30T13:07:46.417Z,4476
2017-10-30T13:08:48.079Z,4876
2017-10-30T13:09:49.749Z,4900
2017-10-30T13:10:52.080Z,4712
2017-10-30T13:11:53.768Z,4572
2017-10-30T13:12:55.472Z,4760
2017-10-30T13:13:57.142Z,5752
2017-10-30T13:14:58.819Z,7268
2017-10-30T13:16:00.516Z,8192
2017-10-30T13:17:02.339Z,7908
2017-10-30T13:18:04.004Z,6884
2017-10-30T13:19:06.015Z,6032
2017-10-30T13:20:09.292Z,7384
2017-10-30T13:21:10.911Z,10564
2017-10-30T13:22:24.099Z,14276
2017-10-30T13:23:25.760Z,16152
2017-10-30T13:24:27.454Z,16100
2017-10-30T13:25:29.113Z,15680
2017-10-30T13:26:30.797Z,15244
2017-10-30T13:27:32.501Z,16308
2017-10-30T13:28:34.219Z,16652
2017-10-30T13:29:35.901Z,15952
2017-10-30T13:30:37.588Z,15456
2017-10-30T13:31:39.248Z,14504
2017-10-30T13:32:41.025Z,13468
2017-10-30T13:33:42.714Z,12400
2017-10-30T13:34:44.383Z,11448
2017-10-30T13:35:46.055Z,9884
2017-10-30T13:36:47.710Z,8320
2017-10-30T13:37:49.384Z,7268
2017-10-30T13:38:51.063Z,6196
2017-10-30T13:39:52.734Z,5808
2017-10-30T13:40:54.406Z,6228
2017-10-30T13:41:56.099Z,6832
2017-10-30T13:42:57.851Z,7372
2017-10-30T13:44:02.915Z,7508
2017-10-30T13:45:04.600Z,6964
2017-10-30T13:46:06.265Z,6192
2017-10-30T13:47:07.933Z,5504
2017-10-30T13:48:09.599Z,5072
2017-10-30T13:49:11.262Z,4628
2017-10-30T13:50:12.937Z,3956
2017-10-30T13:51:14.657Z,3360
2017-10-30T13:52:16.339Z,3092
2017-10-30T13:53:18.000Z,3164
2017-10-30T13:54:19.692Z,3556
2017-10-30T13:55:21.400Z,4000
2017-10-30T13:56:23.072Z,4500
2017-10-30T13:57:24.722Z,5144
2017-10-30T13:58:26.384Z,6204
2017-10-30T13:59:28.039Z,6336
2017-10-30T14:00:29.706Z,6276
2017-10-30T14:01:31.367Z,5652
2017-10-30T14:02:33.052Z,5132
2017-10-30T14:03:34.711Z,5108
2017-10-30T14:04:36.399Z,5212
2017-10-30T14:05:38.054Z,5608
2017-10-30T14:06:39.708Z,5844
2017-10-30T14:07:41.379Z,5752
2017-10-30T14:08:43.041Z,5208
2017-10-30T14:09:44.735Z,4488
2017-10-30T14:10:46.412Z,3780
2017-10-30T14:11:48.141Z,3332
2017-10-30T14:12:49.804Z,3320
2017-10-30T14:13:51.466Z,3852
2017-10-30T14:14:53.132Z,4448
2017-10-30T14:15:54.807Z,4912
2017-10-30T14:16:56.479Z,5268
2017-10-30T14:17:58.145Z,5620
2017-10-30T14:18:59.819Z,6132
2017-10-30T14:20:01.490Z,6356
2017-10-30T14:21:03.165Z,6372
2017-10-30T14:22:04.868Z,5740
2017-10-30T14:23:06.527Z,5176
2017-10-30T14:24:08.193Z,5356
2017-10-30T14:25:10.073Z,5540
2017-10-30T14:26:11.746Z,5468
2017-10-30T14:27:13.414Z,6124
2017-10-30T14:28:15.075Z,7168
2017-10-30T14:29:16.881Z,7420
2017-10-30T14:30:18.549Z,7392